Bonaire, Bonaire

5:53 PM AST on September 02, 2015 (GMT -0400)
Den Chefi | | Change Station
CLOSE
Current Station
Personal Weather Station
Location: Caribbean Netherlands,
Elevation: 7 ft
Nearby Weather Stations

Elev 7 ft 12.15 °N, 68.27 °W | Updated 4 seconds ago

Partly Cloudy
Partly Cloudy
86.2 °F
Feels Like 100 °F
N
7.2
Wind Variable Wind from East
Gusts 9.8 mph

Today
High -- | Low -- °F
--% Chance of Precip.
Yesterday
High -- | Low -- °F
Precip. -- in
6:22 AM 6:42 PM
Waning Gibbous, 77% visible
Pressure 29.86 in
Visibility 6.2 miles
Clouds Few 2000 ft
Heat Index 100 °F
Dew Point 79 °F
Humidity 80%
Rainfall 0.00 in
Snow Depth Not available.
UV 1.0 out of 12
Pollen Not available.
Air Quality Not available.
Flu Activity Not available.
METAR TNCB 022100Z 07016KT 040V110 9999 FEW020 31/25 Q1011 NOSIG
Pressure 29.86 in
Visibility 6.2 miles
Clouds Few 2000 ft
Heat Index 100 °F
Dew Point 79 °F
Humidity 80%
Rainfall 0.00 in
Snow Depth Not available.
UV 1.0 out of 12
Pollen Not available.
Air Quality Not available.
Flu Activity Not available.
METAR TNCB 022100Z 07016KT 040V110 9999 FEW020 31/25 Q1011 NOSIG

10-Day Weather Forecast

×

Almanac

Astronomy

Sep. 02, 2015 Rise Set
Actual Time
Civil Twilight
Nautical Twilight
Astronomical Twilight
Moon
Length of Visible Light
Length of Day
Tomorrow will be .
, % of the Moon is Illuminated

Today's Extremes

Country Highs Country Lows

Community

WunderPhotos

Upload Photos

1,851,818 photos uploaded!

WunderBlogs® & News

Nearby

Air Quality

  Air Quality AQ Index Pollutant
Not available.

Snow Depth

Station Depth Elevation

Earthquake Activity

City Distance Mag. Time & Date
Minimum magnitude displayed is 2.5.

Coastal Water Temperatures

Place Temperature

Stations

Nearby Weather Stations

Station Location Temp. Windchill Dew Point Humidity Wind Precip. Elev Updated Type